createdAt,value
2022-09-16T00:00:27.891Z,10.30
2022-09-16T00:10:32.931Z,10.10
2022-09-16T00:20:36.712Z,10.30
2022-09-16T00:30:42.113Z,10.50
2022-09-16T00:40:47.181Z,10.80
2022-09-16T00:50:56.724Z,11.00
2022-09-16T01:01:00.882Z,11.00
2022-09-16T01:11:07.437Z,11.20
2022-09-16T01:21:31.574Z,11.20
2022-09-16T01:31:42.147Z,11.30
2022-09-16T01:42:02.229Z,11.30
2022-09-16T01:52:21.979Z,11.30
2022-09-16T02:02:32.163Z,11.20
2022-09-16T02:12:42.723Z,11.20
2022-09-16T02:22:51.251Z,10.90
2022-09-16T02:33:01.927Z,10.70
2022-09-16T02:43:06.056Z,10.60
2022-09-16T02:53:22.259Z,10.50
2022-09-16T03:03:26.042Z,10.60
2022-09-16T03:13:41.045Z,10.70
2022-09-16T03:23:51.530Z,10.80
2022-09-16T03:34:06.582Z,10.80
2022-09-16T03:44:10.342Z,10.80
2022-09-16T03:54:15.379Z,10.70
2022-09-16T04:04:19.002Z,10.60
2022-09-16T04:14:24.211Z,10.40
2022-09-16T04:24:28.077Z,9.90
2022-09-16T04:34:33.803Z,9.50
2022-09-16T04:44:37.611Z,9.80
2022-09-16T04:54:42.769Z,9.70
2022-09-16T05:04:46.438Z,9.60
2022-09-16T05:14:51.639Z,9.70
2022-09-16T05:24:55.410Z,9.80
2022-09-16T05:35:00.763Z,10.10
2022-09-16T05:45:04.998Z,11.00
2022-09-16T05:55:10.816Z,11.90
2022-09-16T06:05:14.774Z,12.60
2022-09-16T06:15:19.839Z,13.40
2022-09-16T06:25:23.811Z,14.60
2022-09-16T06:35:29.181Z,16.00
2022-09-16T06:45:32.835Z,18.10
2022-09-16T06:55:37.569Z,19.10
2022-09-16T07:05:41.301Z,21.60
2022-09-16T07:16:11.924Z,23.00
2022-09-16T07:26:15.602Z,24.70
2022-09-16T07:36:24.034Z,23.70
2022-09-16T07:46:31.537Z,27.10
2022-09-16T07:56:39.409Z,28.00
2022-09-16T08:06:43.123Z,22.40
2022-09-16T08:16:51.489Z,22.10
2022-09-16T08:37:01.184Z,24.40
2022-09-16T08:47:10.738Z,21.70
2022-09-16T08:57:21.009Z,22.40
2022-09-16T09:07:42.229Z,20.20
2022-09-16T09:18:03.244Z,18.20
2022-09-16T09:28:28.863Z,16.70
2022-09-16T09:39:01.593Z,18.60
2022-09-16T09:49:13.589Z,19.30
2022-09-16T09:59:28.439Z,18.60
2022-09-16T10:09:32.408Z,17.50
2022-09-16T10:19:52.284Z,16.90
2022-09-16T10:30:15.353Z,16.70
2022-09-16T10:40:23.441Z,17.80
2022-09-16T10:50:28.316Z,23.30
2022-09-16T11:00:45.609Z,29.60
2022-09-16T11:10:58.890Z,27.80
2022-09-16T11:21:36.520Z,26.10
2022-09-16T11:31:52.567Z,29.90
2022-09-16T11:42:14.066Z,28.50
2022-09-16T11:52:37.003Z,30.00
2022-09-16T12:02:50.804Z,37.40
2022-09-16T12:13:01.944Z,36.80
2022-09-16T12:23:15.285Z,29.40
2022-09-16T12:33:24.060Z,24.30
2022-09-16T12:44:23.360Z,19.90
2022-09-16T12:55:23.804Z,18.30
2022-09-16T13:05:33.450Z,17.50
2022-09-16T13:15:41.370Z,16.80
2022-09-16T13:25:52.528Z,16.00
2022-09-16T13:36:31.777Z,16.40
2022-09-16T13:46:39.506Z,16.00
2022-09-16T13:56:56.044Z,16.60
2022-09-16T14:07:16.694Z,16.80
2022-09-16T14:17:25.138Z,17.50
2022-09-16T14:27:34.171Z,17.90
2022-09-16T14:37:40.205Z,17.00
2022-09-16T14:47:51.727Z,17.10
2022-09-16T14:57:55.961Z,18.40
2022-09-16T15:08:14.454Z,17.70
2022-09-16T15:18:25.450Z,17.30
2022-09-16T15:28:30.807Z,17.00
2022-09-16T15:38:34.476Z,16.50
2022-09-16T15:48:46.287Z,16.10
2022-09-16T15:58:53.464Z,16.00
2022-09-16T16:08:59.306Z,15.50
2022-09-16T16:19:05.123Z,15.10
2022-09-16T16:29:10.271Z,14.80
2022-09-16T16:39:13.986Z,14.20
2022-09-16T16:49:19.502Z,13.70
2022-09-16T16:59:23.808Z,13.40
2022-09-16T17:09:29.175Z,13.00
2022-09-16T17:19:33.150Z,12.70
2022-09-16T17:29:38.232Z,12.70
2022-09-16T17:39:42.605Z,12.60
2022-09-16T17:49:47.793Z,12.50
2022-09-16T17:59:51.420Z,12.20
2022-09-16T18:09:56.689Z,11.90
2022-09-16T18:20:04.927Z,11.80
2022-09-16T18:30:13.682Z,11.60
2022-09-16T18:40:17.658Z,11.40
2022-09-16T18:50:22.716Z,11.10
2022-09-16T19:00:26.177Z,10.80
2022-09-16T19:10:31.226Z,10.10
2022-09-16T19:20:34.947Z,9.60
2022-09-16T19:30:39.880Z,9.10
2022-09-16T19:40:44.068Z,8.70
2022-09-16T19:50:54.013Z,8.50
2022-09-16T20:01:02.469Z,8.70
2022-09-16T20:11:10.438Z,9.00
2022-09-16T20:21:16.600Z,9.30
2022-09-16T20:31:24.940Z,9.60
2022-09-16T20:41:31.340Z,9.70
2022-09-16T20:51:36.563Z,9.60
2022-09-16T21:01:42.484Z,9.00
2022-09-16T21:11:47.896Z,8.50
2022-09-16T21:21:51.654Z,8.20
2022-09-16T21:31:57.592Z,7.80
2022-09-16T21:42:01.844Z,7.50
2022-09-16T21:52:06.788Z,7.30
2022-09-16T22:02:10.704Z,7.00
2022-09-16T22:12:15.773Z,6.80
2022-09-16T22:22:19.213Z,6.70
2022-09-16T22:32:24.303Z,6.60
2022-09-16T22:42:28.108Z,6.50
2022-09-16T22:52:33.892Z,6.40
2022-09-16T23:02:37.851Z,6.30
2022-09-16T23:12:43.270Z,6.30
2022-09-16T23:22:47.041Z,6.20
2022-09-16T23:32:52.348Z,6.30
2022-09-16T23:42:56.421Z,6.30
2022-09-16T23:53:01.557Z,6.30
